Stacy, Virginia
Current Conditions -  °F | °C
As of 11:55 AM on Thursday 30 Oct 2014 (Local Time) from KJFZ Reporting Station
Broken Clouds Broken Clouds  
Wind Chill: 46°   Ceiling: 2000
Heat Index: 46°   Visibility: 10mi
Dew Point: 37°   Wind: 0mph
Humidity: 70%   Direction: NA
Pressure: 30.11"   Gusts: NA
Location:  37.3014°N, 82.1027°W
Report Text: KJFZ 301555Z AUTO 00000KT 10SM BKN020 08/03 A3011 RMK AO2 T00770025
Loading
Personal Weather Stations






























Interactive Weather Map
Tropical Storm Tracking
New forecast layout! Learn more

10-Day Weather Forecast

Advertisements
Track Severe Weather on mobile